createdAt,value
2022-12-29T00:01:57.405Z,50.18
2022-12-29T00:04:30.253Z,50.04
2022-12-29T00:07:05.900Z,50.16
2022-12-29T00:09:40.399Z,50.10
2022-12-29T00:12:13.237Z,50.05
2022-12-29T00:15:05.343Z,50.11
2022-12-29T00:17:42.313Z,50.05
2022-12-29T00:20:35.485Z,50.17
2022-12-29T00:23:28.115Z,50.23
2022-12-29T00:26:18.946Z,50.34
2022-12-29T00:29:11.163Z,50.07
2022-12-29T00:32:02.019Z,50.09
2022-12-29T00:34:53.094Z,50.21
2022-12-29T00:37:46.421Z,50.24
2022-12-29T00:40:37.651Z,50.26
2022-12-29T00:43:30.157Z,50.36
2022-12-29T00:46:04.988Z,50.26
2022-12-29T00:48:57.473Z,50.29
2022-12-29T00:51:33.332Z,50.27
2022-12-29T00:54:09.314Z,50.26
2022-12-29T00:56:42.448Z,50.20
2022-12-29T00:59:15.388Z,50.46
2022-12-29T01:01:48.093Z,50.48
2022-12-29T01:04:21.837Z,50.53
2022-12-29T01:06:54.651Z,50.49
2022-12-29T01:09:45.355Z,50.54
2022-12-29T01:12:17.695Z,50.44
2022-12-29T01:14:51.895Z,50.67
2022-12-29T01:17:24.353Z,50.71
2022-12-29T01:19:57.109Z,50.66
2022-12-29T01:22:33.527Z,50.62
2022-12-29T01:25:09.331Z,50.63
2022-12-29T01:27:42.471Z,50.50
2022-12-29T01:30:17.182Z,50.64
2022-12-29T01:32:50.483Z,50.41
2022-12-29T01:35:24.155Z,50.52
2022-12-29T01:37:56.036Z,50.53
2022-12-29T01:40:31.008Z,50.47
2022-12-29T01:43:08.791Z,50.60
2022-12-29T01:45:42.327Z,50.42
2022-12-29T01:48:16.519Z,50.53
2022-12-29T01:50:56.217Z,50.52
2022-12-29T01:53:36.237Z,50.51
2022-12-29T01:56:11.202Z,50.48
2022-12-29T01:58:45.656Z,50.34
2022-12-29T02:01:18.626Z,50.32
2022-12-29T02:03:53.034Z,50.24
2022-12-29T02:06:33.048Z,50.33
2022-12-29T02:09:10.035Z,50.28
2022-12-29T02:11:43.902Z,50.16
2022-12-29T02:14:17.948Z,50.06
2022-12-29T02:17:04.348Z,50.25
2022-12-29T02:20:17.138Z,50.32
2022-12-29T02:23:03.520Z,50.30
2022-12-29T02:26:08.211Z,50.33
2022-12-29T02:28:58.950Z,50.39
2022-12-29T02:31:38.676Z,50.38
2022-12-29T02:34:23.849Z,50.64
2022-12-29T02:37:05.163Z,50.53
2022-12-29T02:39:43.443Z,50.52
2022-12-29T02:42:20.774Z,50.43
2022-12-29T02:45:02.987Z,50.55
2022-12-29T02:47:40.501Z,50.40
2022-12-29T02:50:17.870Z,50.17
2022-12-29T02:52:55.753Z,50.25
2022-12-29T02:55:27.921Z,50.40
2022-12-29T02:58:23.142Z,50.50
2022-12-29T03:01:10.380Z,50.54
2022-12-29T03:03:56.230Z,50.63
2022-12-29T03:06:42.486Z,50.57
2022-12-29T03:09:28.542Z,50.58
2022-12-29T03:12:11.245Z,50.68
2022-12-29T03:15:09.150Z,50.66
2022-12-29T03:17:51.623Z,50.75
2022-12-29T03:20:31.851Z,50.76
2022-12-29T03:23:07.369Z,50.80
2022-12-29T03:25:42.825Z,50.80
2022-12-29T03:28:18.287Z,50.84
2022-12-29T03:30:55.484Z,50.85
2022-12-29T03:33:33.867Z,50.78
2022-12-29T03:36:09.876Z,50.99
2022-12-29T03:38:47.470Z,50.86
2022-12-29T03:41:24.594Z,50.77
2022-12-29T03:43:58.735Z,50.94
2022-12-29T03:46:34.947Z,50.87
2022-12-29T03:49:07.818Z,51.05
2022-12-29T03:51:39.829Z,51.04
2022-12-29T03:54:11.781Z,51.12
2022-12-29T03:56:47.835Z,51.19
2022-12-29T03:59:22.565Z,51.30
2022-12-29T04:01:54.712Z,51.28
2022-12-29T04:04:29.502Z,51.33
2022-12-29T04:07:03.242Z,51.44
2022-12-29T04:09:36.146Z,51.50
2022-12-29T04:12:11.039Z,51.46
2022-12-29T04:14:43.073Z,51.57
2022-12-29T04:17:16.372Z,51.49
2022-12-29T04:19:51.781Z,51.68
2022-12-29T04:22:24.409Z,51.72
2022-12-29T04:24:57.855Z,51.61
2022-12-29T04:27:30.663Z,51.81
2022-12-29T04:30:04.220Z,51.94
2022-12-29T04:32:39.733Z,51.88
2022-12-29T04:35:12.428Z,52.09
2022-12-29T04:37:45.009Z,51.90
2022-12-29T04:40:20.733Z,51.89
2022-12-29T04:42:56.943Z,51.98
2022-12-29T04:45:30.133Z,52.04
2022-12-29T04:48:03.498Z,52.09
2022-12-29T04:50:36.869Z,52.13
2022-12-29T04:53:09.617Z,52.14
2022-12-29T04:55:42.910Z,52.14
2022-12-29T04:58:22.242Z,52.02
2022-12-29T05:00:55.704Z,52.49
2022-12-29T05:03:28.510Z,52.24
2022-12-29T05:06:06.133Z,52.11
2022-12-29T05:08:37.905Z,52.20
2022-12-29T05:11:10.185Z,52.44
2022-12-29T05:13:44.463Z,52.28
2022-12-29T05:16:19.933Z,52.53
2022-12-29T05:18:53.616Z,52.61
2022-12-29T05:21:25.706Z,52.70
2022-12-29T05:24:00.363Z,52.76
2022-12-29T05:26:35.343Z,52.78
2022-12-29T05:29:11.961Z,52.76
2022-12-29T05:31:47.843Z,52.82
2022-12-29T05:34:25.799Z,52.81
2022-12-29T05:36:57.974Z,53.01
2022-12-29T05:39:30.451Z,52.99
2022-12-29T05:42:05.349Z,53.11
2022-12-29T05:44:39.188Z,53.07
2022-12-29T05:47:14.771Z,53.21
2022-12-29T05:49:48.236Z,53.11
2022-12-29T05:52:21.263Z,53.16
2022-12-29T05:54:56.516Z,53.14
2022-12-29T05:57:30.233Z,53.28
2022-12-29T06:00:07.155Z,53.42
2022-12-29T06:02:40.478Z,53.32
2022-12-29T06:05:14.011Z,53.53
2022-12-29T06:07:47.709Z,53.70
2022-12-29T06:10:20.626Z,53.81
2022-12-29T06:12:53.061Z,53.84
2022-12-29T06:15:26.913Z,53.87
2022-12-29T06:17:59.990Z,53.91
2022-12-29T06:20:35.605Z,54.08
2022-12-29T06:23:09.308Z,54.02
2022-12-29T06:25:42.745Z,53.90
2022-12-29T06:28:15.247Z,53.84
2022-12-29T06:30:51.120Z,53.87
2022-12-29T06:33:24.752Z,53.92
2022-12-29T06:35:57.214Z,54.01
2022-12-29T06:38:31.044Z,54.11
2022-12-29T06:41:05.098Z,53.94
2022-12-29T06:43:39.801Z,53.95
2022-12-29T06:46:12.116Z,54.00
2022-12-29T06:48:45.124Z,53.98
2022-12-29T06:51:17.484Z,54.02
2022-12-29T06:53:49.608Z,53.86
2022-12-29T06:56:25.174Z,53.77
2022-12-29T06:58:58.590Z,53.61
2022-12-29T07:01:37.012Z,53.39
2022-12-29T07:04:10.382Z,53.17
2022-12-29T07:06:43.826Z,53.16
2022-12-29T07:09:16.330Z,52.83
2022-12-29T07:11:50.345Z,52.79
2022-12-29T07:14:26.478Z,52.82
2022-12-29T07:17:02.020Z,52.70
2022-12-29T07:19:35.724Z,52.55
2022-12-29T07:22:11.511Z,52.42
2022-12-29T07:24:44.561Z,52.52
2022-12-29T07:27:17.623Z,52.39
2022-12-29T07:29:51.492Z,52.35
2022-12-29T07:32:24.571Z,52.11
2022-12-29T07:34:59.643Z,52.01
2022-12-29T07:37:35.552Z,51.81
2022-12-29T07:40:10.883Z,51.88
2022-12-29T07:42:44.511Z,52.00
2022-12-29T07:45:19.093Z,51.64
2022-12-29T07:47:52.630Z,51.80
2022-12-29T07:50:25.515Z,51.77
2022-12-29T07:53:04.047Z,51.89
2022-12-29T07:55:37.079Z,51.80
2022-12-29T07:58:10.456Z,51.85
2022-12-29T08:00:46.077Z,51.87
2022-12-29T08:03:19.175Z,51.74
2022-12-29T08:05:53.363Z,51.70
2022-12-29T08:08:26.737Z,51.76
2022-12-29T08:10:59.484Z,51.65
2022-12-29T08:13:34.212Z,51.67
2022-12-29T08:16:08.041Z,51.70
2022-12-29T08:18:41.364Z,51.70
2022-12-29T08:21:15.621Z,51.66
2022-12-29T08:23:51.079Z,51.72
2022-12-29T08:26:24.151Z,51.68
2022-12-29T08:28:58.299Z,51.51
2022-12-29T08:31:31.442Z,51.42
2022-12-29T08:34:04.861Z,51.45
2022-12-29T08:36:38.372Z,51.40
2022-12-29T08:39:11.551Z,51.56
2022-12-29T08:41:46.871Z,51.46
2022-12-29T08:44:20.154Z,51.41
2022-12-29T08:46:53.507Z,51.53
2022-12-29T08:49:26.339Z,51.47
2022-12-29T08:52:01.002Z,51.39
2022-12-29T08:54:36.760Z,51.23
2022-12-29T08:57:10.125Z,51.28
2022-12-29T08:59:42.304Z,51.30
2022-12-29T09:02:22.088Z,51.43
2022-12-29T09:04:58.771Z,51.17
2022-12-29T09:07:32.150Z,51.26
2022-12-29T09:10:08.574Z,51.26
2022-12-29T09:12:41.558Z,51.18
2022-12-29T09:15:17.313Z,51.28
2022-12-29T09:17:50.361Z,51.03
2022-12-29T09:20:25.134Z,51.07
2022-12-29T09:22:57.493Z,50.96
2022-12-29T09:25:33.446Z,50.75
2022-12-29T09:28:08.752Z,50.50
2022-12-29T09:30:43.645Z,50.47
2022-12-29T09:33:17.572Z,50.36
2022-12-29T09:35:56.903Z,50.27
2022-12-29T09:38:31.508Z,50.31
2022-12-29T09:41:10.963Z,50.17
2022-12-29T09:44:08.980Z,50.03
2022-12-29T09:46:44.152Z,49.61
2022-12-29T09:49:25.464Z,49.60
2022-12-29T09:52:02.635Z,49.60
2022-12-29T09:54:50.822Z,49.32
2022-12-29T09:57:30.730Z,49.17
2022-12-29T10:00:08.790Z,49.31
2022-12-29T10:02:45.226Z,49.04
2022-12-29T10:05:33.235Z,48.98
2022-12-29T10:08:23.728Z,49.07
2022-12-29T10:11:01.430Z,49.16
2022-12-29T10:13:42.088Z,48.79
2022-12-29T10:16:18.571Z,48.95
2022-12-29T10:19:14.427Z,48.85
2022-12-29T10:21:59.455Z,48.99
2022-12-29T10:24:32.625Z,48.84
2022-12-29T10:27:06.135Z,48.70
2022-12-29T10:29:42.479Z,48.54
2022-12-29T10:32:28.826Z,48.97
2022-12-29T10:35:04.589Z,49.01
2022-12-29T10:37:42.595Z,49.00
2022-12-29T10:40:21.056Z,48.78
2022-12-29T10:42:57.663Z,48.87
2022-12-29T10:45:35.719Z,48.92
2022-12-29T10:48:14.250Z,48.73
2022-12-29T10:50:46.832Z,48.84
2022-12-29T10:53:23.881Z,48.76
2022-12-29T10:55:58.816Z,48.72
2022-12-29T10:58:35.274Z,48.70
2022-12-29T11:01:10.406Z,48.88
2022-12-29T11:04:00.678Z,48.77
2022-12-29T11:06:35.122Z,48.85
2022-12-29T11:09:15.506Z,48.97
2022-12-29T11:11:48.948Z,48.94
2022-12-29T11:14:29.827Z,48.66
2022-12-29T11:17:07.007Z,48.43
2022-12-29T11:19:41.533Z,48.66
2022-12-29T11:22:26.398Z,48.71
2022-12-29T11:25:13.022Z,48.71
2022-12-29T11:28:00.038Z,48.64
2022-12-29T11:30:33.836Z,48.43
2022-12-29T11:33:09.815Z,48.35
2022-12-29T11:35:45.305Z,47.72
2022-12-29T11:38:24.442Z,47.45
2022-12-29T11:40:58.263Z,47.26
2022-12-29T11:43:36.730Z,47.09
2022-12-29T11:46:10.350Z,47.37
2022-12-29T11:48:48.603Z,47.28
2022-12-29T11:51:41.970Z,46.66
2022-12-29T11:54:21.376Z,46.60
2022-12-29T11:56:55.082Z,46.78
2022-12-29T11:59:48.512Z,46.71
2022-12-29T12:02:42.838Z,46.77
2022-12-29T12:05:28.858Z,46.84
2022-12-29T12:08:08.093Z,46.43
2022-12-29T12:10:45.981Z,46.22
2022-12-29T12:13:23.412Z,46.30
2022-12-29T12:16:01.896Z,46.45
2022-12-29T12:18:49.706Z,46.47
2022-12-29T12:21:27.638Z,46.53
2022-12-29T12:24:16.221Z,46.74
2022-12-29T12:27:01.278Z,46.60
2022-12-29T12:29:45.999Z,46.37
2022-12-29T12:32:24.445Z,46.17
2022-12-29T12:34:58.042Z,45.18
2022-12-29T12:37:54.647Z,45.28
2022-12-29T12:40:51.561Z,45.29
2022-12-29T12:43:37.888Z,44.90
2022-12-29T12:46:21.142Z,44.99
2022-12-29T12:49:16.096Z,44.68
2022-12-29T12:52:03.057Z,44.88
2022-12-29T12:54:54.191Z,44.68
2022-12-29T12:57:37.916Z,45.09
2022-12-29T13:00:19.166Z,45.17
2022-12-29T13:03:04.547Z,45.20
2022-12-29T13:05:44.790Z,45.14
2022-12-29T13:08:50.035Z,45.50
2022-12-29T13:11:32.273Z,45.89
2022-12-29T13:14:24.046Z,45.67
2022-12-29T13:16:59.685Z,45.51
2022-12-29T13:19:36.131Z,45.90
2022-12-29T13:22:13.787Z,45.81
2022-12-29T13:24:57.794Z,46.12
2022-12-29T13:27:37.787Z,46.09
2022-12-29T13:30:15.121Z,46.13
2022-12-29T13:32:56.020Z,45.87
2022-12-29T13:35:40.941Z,45.64
2022-12-29T13:38:17.564Z,45.93
2022-12-29T13:40:52.493Z,45.81
2022-12-29T13:43:27.144Z,46.09
2022-12-29T13:46:06.234Z,46.12
2022-12-29T13:48:44.082Z,45.89
2022-12-29T13:51:25.674Z,45.84
2022-12-29T13:54:08.070Z,46.01
2022-12-29T13:56:44.501Z,46.15
2022-12-29T13:59:23.738Z,46.44
2022-12-29T14:02:05.631Z,46.51
2022-12-29T14:05:01.755Z,46.60
2022-12-29T14:07:41.101Z,46.61
2022-12-29T14:10:31.356Z,46.68
2022-12-29T14:13:16.380Z,46.77
2022-12-29T14:15:53.115Z,46.87
2022-12-29T14:18:28.638Z,47.06
2022-12-29T14:21:07.103Z,46.94
2022-12-29T14:23:45.160Z,47.15
2022-12-29T14:26:20.088Z,47.33
2022-12-29T14:28:53.074Z,47.33
2022-12-29T14:31:45.866Z,47.42
2022-12-29T14:34:33.284Z,47.60
2022-12-29T14:37:06.359Z,47.67
2022-12-29T14:39:42.736Z,47.75
2022-12-29T14:42:18.701Z,47.84
2022-12-29T14:44:53.535Z,48.05
2022-12-29T14:47:34.389Z,48.20
2022-12-29T14:50:14.555Z,48.34
2022-12-29T14:53:01.984Z,48.43
2022-12-29T14:55:42.890Z,48.58
2022-12-29T14:58:20.906Z,48.72
2022-12-29T15:00:56.014Z,48.81
2022-12-29T15:03:34.392Z,48.95
2022-12-29T15:06:12.477Z,49.16
2022-12-29T15:08:52.430Z,49.25
2022-12-29T15:11:27.257Z,49.33
2022-12-29T15:14:04.068Z,49.41
2022-12-29T15:16:38.277Z,49.46
2022-12-29T15:19:27.123Z,49.48
2022-12-29T15:22:03.132Z,49.45
2022-12-29T15:24:42.760Z,49.47
2022-12-29T15:27:17.814Z,49.51
2022-12-29T15:30:05.485Z,49.43
2022-12-29T15:32:48.207Z,49.30
2022-12-29T15:35:34.313Z,49.36
2022-12-29T15:38:19.245Z,49.29
2022-12-29T15:40:57.341Z,49.22
2022-12-29T15:43:41.945Z,49.15
2022-12-29T15:46:18.435Z,49.15
2022-12-29T15:48:53.681Z,49.08
2022-12-29T15:51:30.548Z,49.10
2022-12-29T15:54:04.282Z,49.04
2022-12-29T15:56:37.757Z,49.19
2022-12-29T15:59:27.390Z,49.12
2022-12-29T16:02:07.333Z,49.15
2022-12-29T16:05:09.249Z,49.06
2022-12-29T16:07:42.020Z,49.11
2022-12-29T16:10:31.392Z,49.19
2022-12-29T16:13:17.739Z,49.12
2022-12-29T16:15:52.371Z,49.15
2022-12-29T16:18:28.176Z,49.11
2022-12-29T16:21:01.670Z,49.17
2022-12-29T16:23:35.964Z,49.09
2022-12-29T16:26:17.187Z,49.21
2022-12-29T16:28:54.828Z,49.27
2022-12-29T16:31:30.920Z,49.32
2022-12-29T16:34:25.217Z,49.32
2022-12-29T16:37:01.547Z,49.25
2022-12-29T16:39:38.126Z,49.32
2022-12-29T16:42:51.682Z,49.28
2022-12-29T16:46:10.009Z,49.24
2022-12-29T16:48:48.148Z,49.35
2022-12-29T16:51:24.692Z,49.41
2022-12-29T16:53:58.240Z,49.48
2022-12-29T16:56:34.114Z,49.41
2022-12-29T16:59:09.844Z,49.38
2022-12-29T17:01:45.682Z,49.45
2022-12-29T17:04:18.937Z,49.44
2022-12-29T17:06:52.897Z,49.44
2022-12-29T17:09:26.874Z,49.43
2022-12-29T17:12:10.798Z,49.49
2022-12-29T17:14:46.940Z,49.34
2022-12-29T17:17:22.222Z,49.32
2022-12-29T17:20:02.298Z,49.48
2022-12-29T17:22:36.703Z,49.46
2022-12-29T17:25:14.224Z,49.57
2022-12-29T17:27:52.616Z,49.51
2022-12-29T17:30:33.184Z,49.53
2022-12-29T17:33:09.633Z,49.65
2022-12-29T17:35:42.510Z,49.67
2022-12-29T17:38:22.095Z,49.65
2022-12-29T17:40:58.654Z,49.78
2022-12-29T17:43:36.817Z,49.87
2022-12-29T17:46:13.499Z,49.88
2022-12-29T17:48:53.143Z,50.00
2022-12-29T17:51:26.561Z,50.10
2022-12-29T17:54:02.641Z,50.19
2022-12-29T17:56:35.814Z,50.24
2022-12-29T17:59:15.454Z,50.32
2022-12-29T18:01:49.015Z,50.37
2022-12-29T18:04:24.876Z,50.43
2022-12-29T18:06:59.889Z,50.45
2022-12-29T18:09:32.562Z,50.43
2022-12-29T18:12:10.985Z,50.54
2022-12-29T18:14:42.990Z,50.52
2022-12-29T18:17:19.173Z,50.51
2022-12-29T18:19:55.443Z,50.51
2022-12-29T18:22:31.343Z,50.65
2022-12-29T18:25:05.823Z,50.68
2022-12-29T18:27:38.026Z,50.82
2022-12-29T18:30:13.321Z,50.92
2022-12-29T18:32:46.522Z,50.96
2022-12-29T18:35:32.930Z,51.02
2022-12-29T18:38:06.300Z,51.08
2022-12-29T18:40:39.512Z,51.09
2022-12-29T18:43:15.858Z,51.09
2022-12-29T18:45:49.739Z,51.18
2022-12-29T18:48:24.478Z,51.22
2022-12-29T18:50:57.175Z,51.12
2022-12-29T18:53:30.574Z,51.19
2022-12-29T18:56:03.773Z,51.20
2022-12-29T18:58:37.670Z,51.28
2022-12-29T19:01:11.981Z,51.21
2022-12-29T19:03:45.669Z,51.16
2022-12-29T19:06:19.933Z,51.28
2022-12-29T19:08:53.337Z,51.32
2022-12-29T19:11:27.924Z,51.37
2022-12-29T19:14:01.104Z,51.37
2022-12-29T19:16:34.455Z,51.39
2022-12-29T19:19:11.519Z,51.44
2022-12-29T19:21:45.545Z,51.57
2022-12-29T19:24:18.367Z,51.56
2022-12-29T19:26:52.617Z,51.55
2022-12-29T19:29:26.519Z,51.75
2022-12-29T19:31:59.130Z,51.84
2022-12-29T19:34:32.778Z,51.93
2022-12-29T19:37:06.317Z,51.80
2022-12-29T19:39:41.350Z,51.97
2022-12-29T19:42:13.795Z,52.01
2022-12-29T19:44:46.741Z,51.94
2022-12-29T19:47:26.968Z,52.09
2022-12-29T19:50:08.131Z,52.02
2022-12-29T19:52:41.560Z,52.10
2022-12-29T19:55:16.589Z,52.18
2022-12-29T19:57:48.806Z,52.18
2022-12-29T20:00:21.880Z,52.01
2022-12-29T20:02:58.042Z,52.15
2022-12-29T20:05:33.278Z,52.19
2022-12-29T20:08:05.981Z,52.14
2022-12-29T20:10:40.322Z,52.22
2022-12-29T20:13:15.173Z,52.23
2022-12-29T20:15:48.569Z,52.28
2022-12-29T20:18:28.996Z,52.29
2022-12-29T20:21:07.659Z,52.31
2022-12-29T20:23:41.612Z,52.33
2022-12-29T20:26:22.662Z,52.35
2022-12-29T20:29:00.140Z,52.44
2022-12-29T20:31:36.366Z,52.50
2022-12-29T20:34:15.056Z,52.54
2022-12-29T20:36:49.733Z,52.43
2022-12-29T20:39:24.053Z,52.53
2022-12-29T20:41:57.634Z,52.57
2022-12-29T20:44:30.498Z,52.50
2022-12-29T20:47:06.224Z,52.52
2022-12-29T20:49:41.953Z,52.54
2022-12-29T20:52:14.975Z,52.56
2022-12-29T20:54:49.989Z,52.67
2022-12-29T20:57:24.705Z,52.63
2022-12-29T21:00:00.577Z,52.70
2022-12-29T21:02:34.182Z,52.61
2022-12-29T21:05:23.872Z,52.68
2022-12-29T21:07:59.520Z,52.67
2022-12-29T21:10:32.656Z,52.75
2022-12-29T21:13:06.561Z,52.71
2022-12-29T21:15:43.030Z,52.72
2022-12-29T21:18:16.355Z,52.65
2022-12-29T21:20:59.478Z,52.63
2022-12-29T21:23:34.371Z,52.70
2022-12-29T21:26:10.641Z,52.71
2022-12-29T21:28:46.390Z,52.73
2022-12-29T21:31:28.990Z,52.71
2022-12-29T21:34:04.743Z,52.70
2022-12-29T21:36:39.526Z,52.75
2022-12-29T21:39:16.550Z,52.74
2022-12-29T21:41:53.302Z,52.76
2022-12-29T21:44:44.940Z,52.78
2022-12-29T21:47:21.169Z,52.83
2022-12-29T21:49:53.904Z,52.84
2022-12-29T21:52:31.632Z,52.91
2022-12-29T21:55:10.063Z,52.92
2022-12-29T21:58:05.927Z,52.96
2022-12-29T22:00:56.878Z,52.85
2022-12-29T22:03:50.417Z,52.91
2022-12-29T22:06:42.345Z,52.92
2022-12-29T22:09:38.578Z,53.01
2022-12-29T22:12:33.067Z,53.03
2022-12-29T22:15:06.512Z,53.08
2022-12-29T22:17:42.432Z,53.17
2022-12-29T22:20:23.163Z,53.22
2022-12-29T22:22:56.630Z,53.22
2022-12-29T22:25:34.225Z,53.37
2022-12-29T22:28:08.349Z,53.27
2022-12-29T22:30:40.791Z,53.40
2022-12-29T22:33:14.704Z,53.31
2022-12-29T22:35:47.918Z,53.40
2022-12-29T22:38:23.775Z,53.31
2022-12-29T22:41:02.581Z,53.36
2022-12-29T22:43:37.732Z,53.37
2022-12-29T22:46:10.353Z,53.45
2022-12-29T22:48:43.949Z,53.41
2022-12-29T22:51:16.909Z,53.43
2022-12-29T22:53:51.915Z,53.42
2022-12-29T22:56:24.933Z,53.48
2022-12-29T22:59:00.724Z,53.55
2022-12-29T23:01:36.913Z,53.59
2022-12-29T23:04:55.535Z,53.62
2022-12-29T23:07:04.885Z,53.67
2022-12-29T23:09:38.557Z,53.65
2022-12-29T23:12:10.826Z,53.77
2022-12-29T23:14:43.787Z,53.75
2022-12-29T23:17:18.328Z,53.76
2022-12-29T23:19:50.819Z,53.81
2022-12-29T23:22:25.718Z,53.79
2022-12-29T23:24:59.718Z,54.00
2022-12-29T23:27:32.571Z,54.00
2022-12-29T23:30:08.827Z,54.13
2022-12-29T23:32:43.004Z,54.20
2022-12-29T23:35:16.301Z,54.20
2022-12-29T23:37:48.498Z,54.34
2022-12-29T23:40:21.326Z,54.34
2022-12-29T23:42:54.835Z,54.51
2022-12-29T23:45:28.637Z,54.38
2022-12-29T23:48:01.359Z,54.37
2022-12-29T23:50:35.769Z,54.44
2022-12-29T23:53:08.901Z,54.51
2022-12-29T23:55:45.491Z,54.63
2022-12-29T23:58:17.347Z,54.66
